ADDS METAR Data INFO
IDs: Format: Raw Decoded Include TAF

Data at: 1504 UTC 23 Oct 2017

KELZ 231456Z AUTO 18014G25KT 10SM SCT018 17/11 A3013 RMK AO2 PK WND 18028/1434 SLP200 T01670111 56008
KELZ 231452Z AUTO 17013G22KT 10SM SCT016 17/11 A3013 RMK AO2 PK WND 18028/1434
KELZ 231417Z AUTO 18012G25KT 10SM BKN016 16/11 A3014 RMK AO2 T01610106
KELZ 231356Z AUTO 19012G20KT 150V210 10SM SCT017 16/11 A3015 RMK AO2 PK WND 15026/1304 SLP205 T01560106
KELZ 231256Z AUTO 16011G23KT 10SM CLR 15/09 A3016 RMK AO2 SLP209 T01500094
KELZ 231156Z AUTO 17009G17KT 10SM CLR 14/09 A3017 RMK AO2 SLP212 T01390094 10150 20133 58009
KELZ 231056Z AUTO 17012G17KT 10SM CLR 14/09 A3017 RMK AO2 SLP213 T01390094
KELZ 230956Z AUTO 17008KT 10SM CLR 14/09 A3019 RMK AO2 SLP218 T01390089
KELZ 230856Z AUTO 17009G18KT 10SM CLR 14/09 A3020 RMK AO2 SLP218 T01440089 58010
KELZ 230756Z AUTO 18010G16KT 140V200 10SM CLR 14/09 A3021 RMK AO2 SLP223 T01440094
KELZ 230656Z AUTO 17009G18KT 10SM CLR 15/09 A3022 RMK AO2 SLP225 T01500094
KELZ 230556Z AUTO 16012G18KT 10SM CLR 15/09 A3023 RMK AO2 SLP228 T01500094 10183 20150 56014
KELZ 230456Z AUTO 17013G18KT 10SM CLR 16/09 A3024 RMK AO2 SLP231 T01560094 402390117
KELZ 230429Z AUTO 16009G19KT 10SM FEW003 16/09 A3025 RMK AO2 T01560094
KELZ 230356Z AUTO 16008KT 10SM CLR 16/10 A3025 RMK AO2 SLP237 T01610100
KELZ 230256Z AUTO 14005KT 10SM CLR 16/10 A3027 RMK AO2 SLP245 T01610100 58001
KELZ 230156Z AUTO 16009G17KT 10SM CLR 17/10 A3028 RMK AO2 SLP251 T01670100
KELZ 230056Z AUTO 17009G15KT 10SM CLR 17/10 A3029 RMK AO2 SLP254 T01720100
KELZ 222356Z AUTO 18008KT 150V210 10SM CLR 18/09 A3028 RMK AO2 SLP251 T01830094 10239 20183 53003
KELZ 222256Z AUTO 16008KT 10SM CLR 19/09 A3026 RMK AO2 SLP246 T01890089
KELZ 222156Z AUTO 17008G15KT 10SM CLR 21/08 A3026 RMK AO2 SLP243 T02060083
KELZ 222056Z AUTO 16006KT 10SM CLR 22/08 A3027 RMK AO2 SLP242 T02170078 56014
KELZ 221956Z AUTO 16008KT 110V180 10SM CLR 23/07 A3027 RMK AO2 SLP243 T02330067
KELZ 221856Z AUTO 18007KT 10SM CLR 23/07 A3028 RMK AO2 SLP247 T02330072
KELZ 221756Z AUTO 14007KT 10SM CLR 23/08 A3031 RMK AO2 SLP256 T02280078 10233 20128 58012
KELZ 221656Z AUTO VRB06KT 10SM CLR 23/09 A3033 RMK AO2 SLP262 T02280089
KELZ 221556Z AUTO VRB06KT 10SM CLR 22/08 A3034 RMK AO2 SLP266 T02170083
KELZ 221456Z AUTO 17006KT 10SM CLR 20/08 A3035 RMK AO2 SLP270 T02000083 58003
KELZ 221356Z AUTO 17004KT 10SM CLR 17/07 A3035 RMK AO2 SLP274 T01670067
KELZ 221256Z AUTO 17007KT 10SM CLR 15/06 A3036 RMK AO2 SLP279 T01500061
KELZ 221156Z AUTO 18005KT 10SM CLR 13/05 A3036 RMK AO2 SLP279 T01280050 10156 20117 50004
KELZ 221056Z AUTO 13003KT 10SM CLR 12/04 A3036 RMK AO2 SLP278 T01220044
KELZ 220956Z AUTO 00000KT 10SM CLR 14/04 A3036 RMK AO2 SLP276 T01390044
KELZ 220856Z AUTO 00000KT 10SM CLR 14/04 A3035 RMK AO2 SLP269 T01440044 53006
KELZ 220756Z AUTO VRB04KT 10SM CLR 15/04 A3032 RMK AO2 SLP261 T01500044
KELZ 220656Z AUTO VRB03KT 10SM CLR 15/04 A3033 RMK AO2 SLP263 T01500044
KELZ 220556Z AUTO 18006KT 10SM CLR 16/04 A3033 RMK AO2 SLP262 T01560044 10178 20156 55004
KELZ 220456Z AUTO 18006KT 10SM CLR 16/04 A3032 RMK AO2 SLP261 T01560044 402330072
KELZ 220356Z AUTO 18007KT 10SM CLR 17/04 A3034 RMK AO2 SLP265 T01670044